Time;durP1;ratioP1;P1;durP2;ratioP2;P2;SDS_P1;SDS_P2;PMS_P1;PMS_P2;Temp;Humidity;BMP_temperature;BMP_pressure;BME280_temperature;BME280_humidity;BME280_pressure;Samples;Min_cycle;Max_cycle;Signal;HPM_P1;HPM_P2
2022/04/07 00:00:18;;;;;;;0.80;0.80;;;;;;;11.08;70.99;98978.03;5105488;28;20724;-81
2022/04/07 00:02:43;;;;;;;1.80;1.25;;;;;;;11.05;70.92;98968.56;5107302;28;20394;-80
2022/04/07 00:05:09;;;;;;;1.50;1.00;;;;;;;11.01;70.01;98966.69;5104402;28;20380;-81
2022/04/07 00:07:34;;;;;;;1.20;1.10;;;;;;;11.03;69.79;98965.31;5101986;28;20449;-80
2022/04/07 00:09:59;;;;;;;2.20;1.43;;;;;;;11.11;69.56;98964.72;5108614;28;20400;-80
2022/04/07 00:12:25;;;;;;;1.10;1.00;;;;;;;11.11;69.76;98959.28;5096733;28;20523;-80
2022/04/07 00:14:50;;;;;;;1.83;0.90;;;;;;;11.20;69.60;98960.28;5110063;28;20404;-80
2022/04/07 00:17:15;;;;;;;1.97;1.00;;;;;;;11.25;69.87;98951.31;5103420;28;20390;-80
2022/04/07 00:19:41;;;;;;;1.00;1.00;;;;;;;11.27;70.33;98949.91;5101427;28;20432;-80
2022/04/07 00:22:06;;;;;;;1.20;0.87;;;;;;;11.23;70.87;98940.72;5100584;28;20798;-80
2022/04/07 00:24:31;;;;;;;0.73;0.73;;;;;;;11.34;70.64;98936.84;5114498;28;20385;-81
2022/04/07 00:26:57;;;;;;;0.70;0.70;;;;;;;11.33;70.64;98932.50;5104228;28;20413;-80
2022/04/07 00:29:22;;;;;;;0.70;0.70;;;;;;;11.34;70.10;98925.16;5101032;28;20415;-80
2022/04/07 00:31:55;;;;;;;0.77;0.77;;;;;;;11.26;70.10;98923.88;5102473;28;20455;-81
2022/04/07 00:34:21;;;;;;;0.82;0.82;;;;;;;11.18;70.19;98913.69;5108056;28;20394;-81
2022/04/07 00:36:46;;;;;;;0.77;0.77;;;;;;;11.25;69.94;98913.34;5103402;28;20393;-80
2022/04/07 00:39:11;;;;;;;1.77;0.70;;;;;;;11.32;69.89;98911.09;5107493;27;20400;-80
2022/04/07 00:41:38;;;;;;;1.00;0.90;;;;;;;11.27;69.59;98900.28;5105621;28;20410;-81
2022/04/07 00:44:05;;;;;;;0.60;0.40;;;;;;;11.21;69.80;98904.16;5099682;28;20380;-80
2022/04/07 00:46:30;;;;;;;0.60;0.60;;;;;;;11.20;69.56;98897.09;5104743;28;20845;-80
2022/04/07 00:48:56;;;;;;;0.73;0.70;;;;;;;11.24;69.18;98893.53;5103135;28;20402;-81
2022/04/07 00:51:21;;;;;;;1.10;0.60;;;;;;;11.23;69.44;98886.50;5113575;28;20391;-80
2022/04/07 00:53:46;;;;;;;0.70;0.70;;;;;;;11.19;69.18;98882.75;5097126;28;20739;-80
2022/04/07 00:56:12;;;;;;;0.67;0.67;;;;;;;11.17;69.43;98882.22;5108885;28;20990;-80
2022/04/07 00:58:38;;;;;;;1.30;1.30;;;;;;;11.24;69.13;98865.63;5105404;28;20380;-80
2022/04/07 01:01:03;;;;;;;1.30;1.30;;;;;;;11.22;69.54;98859.69;5112440;28;20400;-80
2022/04/07 01:03:28;;;;;;;1.30;0.57;;;;;;;11.18;69.70;98869.47;5097371;28;20871;-80
2022/04/07 01:05:54;;;;;;;0.80;0.60;;;;;;;11.11;70.35;98866.28;5106625;28;21053;-80
2022/04/07 01:08:20;;;;;;;0.57;0.50;;;;;;;11.09;70.70;98869.31;5094313;28;20402;-80
2022/04/07 01:10:47;;;;;;;0.30;0.30;;;;;;;11.12;70.69;98865.22;5108812;28;20391;-80
2022/04/07 01:13:12;;;;;;;0.95;0.60;;;;;;;11.14;70.70;98861.09;5102065;28;20755;-79
2022/04/07 01:15:38;;;;;;;1.30;0.40;;;;;;;11.09;70.45;98858.47;5099119;28;20396;-80
2022/04/07 01:18:04;;;;;;;0.60;0.60;;;;;;;11.11;70.02;98856.25;5110654;28;20404;-80
2022/04/07 01:20:29;;;;;;;0.40;0.32;;;;;;;11.08;70.44;98856.84;5099200;28;20445;-80
2022/04/07 01:22:56;;;;;;;1.10;0.57;;;;;;;11.12;69.98;98857.06;5109803;28;20438;-81
2022/04/07 01:25:23;;;;;;;0.65;0.30;;;;;;;11.13;70.12;98862.19;5101805;28;20477;-81
2022/04/07 01:27:49;;;;;;;0.40;0.40;;;;;;;11.20;69.46;98856.44;5101635;28;20411;-80
2022/04/07 01:30:15;;;;;;;0.80;0.40;;;;;;;11.15;69.55;98859.22;5102455;28;20755;-80
2022/04/07 01:32:47;;;;;;;1.10;0.30;;;;;;;11.21;69.51;98848.03;5102728;28;20753;-80
2022/04/07 01:35:13;;;;;;;0.85;0.40;;;;;;;11.13;69.39;98856.00;5098901;28;20385;-81
2022/04/07 01:37:41;;;;;;;0.50;0.50;;;;;;;11.15;69.11;98848.38;5108999;28;20411;-80
2022/04/07 01:40:10;;;;;;;2.58;0.65;;;;;;;11.18;68.85;98850.50;5107762;28;20402;-80
2022/04/07 01:42:37;;;;;;;0.50;0.50;;;;;;;11.09;69.80;98852.22;5101814;28;20467;-81
2022/04/07 01:45:04;;;;;;;0.65;0.50;;;;;;;11.03;71.23;98845.25;5108119;28;20408;-81
2022/04/07 01:47:33;;;;;;;0.80;0.70;;;;;;;11.05;72.39;98843.03;5104581;28;20472;-83
2022/04/07 01:50:06;;;;;;;1.58;1.33;;;;;;;10.91;73.12;98846.44;5098843;28;20872;-83
2022/04/07 01:52:33;;;;;;;1.60;0.90;;;;;;;10.80;74.29;98844.91;5095517;28;20398;-82
2022/04/07 01:54:59;;;;;;;0.60;0.60;;;;;;;10.76;73.94;98845.78;5104070;28;20463;-81
2022/04/07 01:57:25;;;;;;;1.10;1.10;;;;;;;10.69;73.88;98843.41;5100874;28;20874;-81
2022/04/07 01:59:51;;;;;;;0.85;0.73;;;;;;;10.69;74.15;98843.41;5107923;28;20384;-82
2022/04/07 02:02:17;;;;;;;0.90;0.90;;;;;;;10.73;74.74;98843.63;5096186;28;20443;-82
2022/04/07 02:04:59;;;;;;;0.85;0.85;;;;;;;10.81;73.99;98843.00;5094525;28;20481;-82
2022/04/07 02:07:32;;;;;;;1.05;1.05;;;;;;;10.60;74.39;98841.59;5093864;28;20927;-82
2022/04/07 02:09:58;;;;;;;1.73;1.20;;;;;;;10.66;74.07;98833.13;5105933;28;20405;-82
2022/04/07 02:12:27;;;;;;;1.38;1.10;;;;;;;10.74;74.04;98826.28;5108539;28;20397;-81
2022/04/07 02:14:53;;;;;;;1.33;1.23;;;;;;;10.65;73.92;98814.44;5093960;28;21030;-81
2022/04/07 02:17:20;;;;;;;1.30;0.80;;;;;;;10.65;73.39;98817.97;5105222;28;20415;-82
2022/04/07 02:19:50;;;;;;;0.60;0.60;;;;;;;10.72;72.87;98823.84;5095985;28;20439;-81
2022/04/07 02:22:15;;;;;;;1.15;1.10;;;;;;;10.59;73.57;98815.59;5093385;28;20424;-80
2022/04/07 02:24:41;;;;;;;1.10;1.10;;;;;;;10.60;73.06;98811.78;5100839;28;20508;-80
2022/04/07 02:27:08;;;;;;;1.17;1.17;;;;;;;10.64;73.06;98805.50;5102698;28;21475;-81
2022/04/07 02:29:33;;;;;;;1.63;1.50;;;;;;;10.66;72.50;98806.03;5112532;28;20475;-80
2022/04/07 02:31:58;;;;;;;1.05;1.05;;;;;;;10.71;72.00;98803.28;5096041;28;20798;-81
2022/04/07 02:34:24;;;;;;;1.10;0.60;;;;;;;10.74;71.70;98799.16;5105980;28;20872;-80
2022/04/07 02:36:49;;;;;;;1.23;1.02;;;;;;;10.80;71.35;98801.53;5102439;28;20396;-81
2022/04/07 02:39:14;;;;;;;0.80;0.80;;;;;;;10.72;71.22;98793.25;5107209;28;20449;-82
2022/04/07 02:41:40;;;;;;;1.13;1.03;;;;;;;10.74;71.34;98788.34;5093075;28;20767;-82
2022/04/07 02:44:05;;;;;;;1.20;1.20;;;;;;;10.76;70.79;98786.16;5097974;28;20427;-82
2022/04/07 02:46:30;;;;;;;1.33;1.23;;;;;;;10.84;70.47;98786.34;5091498;28;20817;-82
2022/04/07 02:48:56;;;;;;;1.50;0.93;;;;;;;10.85;70.38;98779.84;5097164;28;20386;-81
2022/04/07 02:51:21;;;;;;;1.47;0.57;;;;;;;10.86;70.21;98772.50;5108380;28;20481;-81
2022/04/07 02:53:46;;;;;;;0.97;0.57;;;;;;;10.86;70.23;98777.94;5096234;28;20416;-81
2022/04/07 02:56:12;;;;;;;0.70;0.50;;;;;;;10.85;69.77;98765.47;5103319;28;20408;-81
2022/04/07 02:58:37;;;;;;;0.30;0.30;;;;;;;10.79;69.60;98764.72;5097821;28;20389;-82
2022/04/07 03:01:02;;;;;;;1.40;0.47;;;;;;;10.87;69.70;98761.38;5108034;28;20431;-81
2022/04/07 03:03:28;;;;;;;0.53;0.53;;;;;;;10.92;69.17;98757.81;5095523;28;20399;-81
2022/04/07 03:05:53;;;;;;;0.70;0.70;;;;;;;10.90;68.98;98744.53;5105747;28;20400;-81
2022/04/07 03:08:18;;;;;;;1.10;0.60;;;;;;;10.98;69.12;98751.22;5108688;28;20945;-81
2022/04/07 03:10:43;;;;;;;0.80;0.53;;;;;;;11.01;68.95;98747.13;5111912;28;20389;-81
2022/04/07 03:13:09;;;;;;;2.00;0.50;;;;;;;10.94;68.81;98750.19;5108561;28;20501;-82
2022/04/07 03:15:34;;;;;;;1.10;0.30;;;;;;;10.88;69.02;98748.63;5094115;28;20439;-81
2022/04/07 03:17:59;;;;;;;1.17;0.40;;;;;;;10.91;68.65;98748.88;5109154;28;20404;-81
2022/04/07 03:20:25;;;;;;;0.23;0.23;;;;;;;10.94;68.43;98739.34;5098056;28;20466;-80
2022/04/07 03:22:50;;;;;;;0.53;0.53;;;;;;;10.89;68.71;98740.22;5108117;28;20526;-81
2022/04/07 03:25:15;;;;;;;1.17;0.63;;;;;;;10.84;69.06;98737.56;5098991;28;20410;-81
2022/04/07 03:27:41;;;;;;;0.70;0.60;;;;;;;10.80;69.48;98736.50;5109479;28;20895;-81
2022/04/07 03:30:07;;;;;;;0.90;0.70;;;;;;;10.77;69.37;98739.00;5104592;28;20392;-81
2022/04/07 03:32:32;;;;;;;2.80;0.80;;;;;;;10.70;69.53;98736.63;5094016;28;20397;-81
2022/04/07 03:34:58;;;;;;;0.67;0.47;;;;;;;10.74;69.51;98726.84;5099974;28;20763;-82
2022/04/07 03:37:23;;;;;;;1.47;0.60;;;;;;;10.81;69.29;98726.47;5103919;28;20908;-82
2022/04/07 03:39:49;;;;;;;0.50;0.50;;;;;;;10.75;69.39;98731.16;5106813;28;20462;-81
2022/04/07 03:42:15;;;;;;;1.42;0.70;;;;;;;10.85;69.57;98716.69;5095839;27;20893;-81
2022/04/07 03:44:40;;;;;;;0.60;0.57;;;;;;;10.80;70.21;98716.75;5098059;28;20444;-81
2022/04/07 03:47:06;;;;;;;1.37;0.57;;;;;;;10.83;69.98;98718.91;5102707;28;20479;-82
2022/04/07 03:49:31;;;;;;;0.50;0.50;;;;;;;10.87;69.37;98704.47;5110781;28;20403;-81
2022/04/07 03:51:57;;;;;;;1.63;0.67;;;;;;;10.79;69.81;98713.25;5099497;28;20505;-81
2022/04/07 03:54:22;;;;;;;0.80;0.70;;;;;;;10.73;70.49;98706.28;5111586;28;20437;-80
2022/04/07 03:56:48;;;;;;;2.33;0.73;;;;;;;10.72;70.42;98701.13;5096034;27;20501;-81
2022/04/07 03:59:13;;;;;;;0.60;0.50;;;;;;;10.67;70.54;98696.56;5104135;28;20471;-82
2022/04/07 04:01:44;;;;;;;0.67;0.60;;;;;;;10.62;71.34;98690.41;5101975;28;20904;-81
2022/04/07 04:04:09;;;;;;;0.70;0.70;;;;;;;10.63;71.28;98687.41;5093407;28;20402;-80
2022/04/07 04:06:34;;;;;;;1.80;0.80;;;;;;;10.51;71.50;98681.56;5105664;28;20495;-81
2022/04/07 04:09:00;;;;;;;0.73;0.60;;;;;;;10.63;71.49;98681.19;5102389;28;20878;-82
2022/04/07 04:11:25;;;;;;;2.72;1.10;;;;;;;10.68;71.00;98676.50;5100953;28;20787;-81
2022/04/07 04:13:51;;;;;;;2.37;0.90;;;;;;;10.74;70.53;98675.34;5109794;28;20896;-82
2022/04/07 04:16:17;;;;;;;1.50;0.70;;;;;;;10.66;71.13;98680.63;5106800;28;20400;-82
2022/04/07 04:18:43;;;;;;;4.55;1.10;;;;;;;10.63;71.63;98675.78;5107068;28;20428;-81
2022/04/07 04:21:09;;;;;;;3.15;1.25;;;;;;;10.61;71.76;98675.22;5097750;28;20404;-81
2022/04/07 04:23:35;;;;;;;1.43;0.87;;;;;;;10.62;72.31;98669.53;5102416;28;20883;-81
2022/04/07 04:26:01;;;;;;;1.50;0.80;;;;;;;10.56;72.33;98683.44;5100134;27;20412;-80
2022/04/07 04:28:26;;;;;;;0.60;0.60;;;;;;;10.61;71.76;98675.22;5100170;28;20772;-80
2022/04/07 04:30:51;;;;;;;0.87;0.87;;;;;;;10.64;71.87;98671.94;5099018;27;20505;-80
2022/04/07 04:33:16;;;;;;;0.80;0.80;;;;;;;10.60;71.90;98670.94;5104615;28;20400;-79
2022/04/07 04:35:42;;;;;;;1.50;0.60;;;;;;;10.62;71.99;98660.59;5096140;27;20386;-80
2022/04/07 04:38:07;;;;;;;0.67;0.60;;;;;;;10.60;71.81;98660.91;5108829;28;20386;-81
2022/04/07 04:40:32;;;;;;;2.15;0.73;;;;;;;10.56;71.86;98651.75;5105940;28;20864;-81
2022/04/07 04:42:59;;;;;;;0.70;0.70;;;;;;;10.49;72.49;98648.56;5105138;28;20392;-82
2022/04/07 04:45:25;;;;;;;1.17;0.70;;;;;;;10.47;72.51;98650.78;5111891;28;20898;-80
2022/04/07 04:47:52;;;;;;;2.90;0.60;;;;;;;10.47;72.27;98663.50;5107831;28;20420;-79
2022/04/07 04:50:18;;;;;;;0.60;0.60;;;;;;;10.48;72.64;98665.09;5101574;28;20404;-79
2022/04/07 04:52:43;;;;;;;1.10;0.60;;;;;;;10.54;72.16;98650.41;5103107;28;20409;-80
2022/04/07 04:55:09;;;;;;;0.80;0.80;;;;;;;10.53;72.00;98655.03;5108619;28;20404;-79
2022/04/07 04:57:35;;;;;;;2.28;0.98;;;;;;;10.54;72.22;98645.78;5109144;28;20394;-80
2022/04/07 05:00:00;;;;;;;1.13;0.60;;;;;;;10.52;72.24;98631.75;5103272;28;20931;-80
2022/04/07 05:02:25;;;;;;;1.50;0.60;;;;;;;10.58;71.99;98638.72;5107633;27;20424;-79
2022/04/07 05:04:51;;;;;;;1.45;0.63;;;;;;;10.53;72.36;98630.66;5098209;28;20409;-80
2022/04/07 05:07:16;;;;;;;0.47;0.40;;;;;;;10.55;72.10;98638.47;5107958;27;20400;-79
2022/04/07 05:09:41;;;;;;;3.08;0.70;;;;;;;10.54;71.98;98632.25;5112890;28;20723;-80
2022/04/07 05:12:07;;;;;;;0.50;0.50;;;;;;;10.54;71.83;98628.75;5109032;28;20391;-82
2022/04/07 05:14:32;;;;;;;0.45;0.45;;;;;;;10.50;71.97;98625.00;5113199;27;20816;-81
2022/04/07 05:16:57;;;;;;;0.90;0.40;;;;;;;10.50;72.16;98625.00;5097037;28;20390;-81
2022/04/07 05:19:23;;;;;;;0.50;0.50;;;;;;;10.59;71.84;98613.25;5108286;28;20429;-80
2022/04/07 05:21:50;;;;;;;0.40;0.40;;;;;;;10.66;71.46;98602.06;5118807;27;20486;-82
2022/04/07 05:24:19;;;;;;;2.20;0.50;;;;;;;10.65;71.65;98605.84;5120657;27;20700;-79
2022/04/07 05:26:45;;;;;;;0.93;0.45;;;;;;;10.68;71.30;98599.84;5096296;28;20410;-81
2022/04/07 05:29:11;;;;;;;1.38;1.25;;;;;;;10.73;71.64;98591.66;5104167;28;20734;-84
2022/04/07 05:31:36;;;;;;;4.88;0.90;;;;;;;10.69;71.72;98579.78;5085006;28;20449;-81
2022/04/07 05:34:02;;;;;;;0.70;0.70;;;;;;;10.67;71.69;98577.38;5090461;28;20404;-81
2022/04/07 05:36:28;;;;;;;0.47;0.47;;;;;;;10.67;72.02;98580.06;5096672;27;20412;-84
2022/04/07 05:38:53;;;;;;;0.80;0.50;;;;;;;10.73;71.58;98575.41;5091748;28;20465;-81
2022/04/07 05:41:19;;;;;;;1.00;0.50;;;;;;;10.76;71.33;98580.25;5086498;28;20413;-80
2022/04/07 05:43:44;;;;;;;2.43;0.70;;;;;;;10.94;71.22;98571.31;5092305;28;20812;-81
2022/04/07 05:46:09;;;;;;;1.00;0.73;;;;;;;10.91;71.11;98574.59;5100916;28;20496;-80
2022/04/07 05:48:35;;;;;;;0.97;0.40;;;;;;;10.85;70.93;98573.06;5093855;28;20406;-79
2022/04/07 05:51:01;;;;;;;0.50;0.50;;;;;;;10.96;71.07;98571.03;5097248;28;20416;-82
2022/04/07 05:53:26;;;;;;;0.32;0.32;;;;;;;10.94;71.12;98563.19;5098596;28;20406;-82
2022/04/07 05:55:52;;;;;;;0.40;0.30;;;;;;;10.98;71.14;98575.06;5097258;28;20940;-81
2022/04/07 05:58:17;;;;;;;0.87;0.33;;;;;;;11.01;71.01;98570.94;5095344;28;20824;-81
2022/04/07 06:00:42;;;;;;;1.08;0.38;;;;;;;10.96;71.33;98571.03;5100023;28;20760;-84
2022/04/07 06:03:08;;;;;;;1.40;0.40;;;;;;;11.00;72.58;98582.91;5111211;28;20857;-82
2022/04/07 06:05:35;;;;;;;1.20;0.20;;;;;;;10.85;74.71;98581.19;5107285;28;20432;-82
2022/04/07 06:08:01;;;;;;;1.85;0.50;;;;;;;10.70;76.30;98576.78;5104042;28;20401;-82
2022/04/07 06:10:27;;;;;;;1.00;0.30;;;;;;;10.55;77.23;98560.75;5108101;28;20410;-82
2022/04/07 06:12:53;;;;;;;0.70;0.20;;;;;;;10.45;78.04;98549.22;5109506;28;20408;-86
2022/04/07 06:15:18;;;;;;;0.63;0.22;;;;;;;10.43;77.10;98567.66;5110412;27;20400;-84
2022/04/07 06:17:47;;;;;;;0.80;0.30;;;;;;;10.49;77.40;98564.63;5102424;28;20400;-81
2022/04/07 06:20:13;;;;;;;0.20;0.20;;;;;;;10.54;76.63;98561.03;5101239;28;20413;-84
2022/04/07 06:22:40;;;;;;;0.60;0.30;;;;;;;10.46;77.41;98545.44;5091158;28;20417;-82
2022/04/07 06:25:06;;;;;;;0.57;0.28;;;;;;;10.56;77.18;98537.97;5096472;28;21124;-81
2022/04/07 06:27:39;;;;;;;3.78;0.30;;;;;;;10.65;76.58;98549.78;5097794;28;20452;-86
2022/04/07 06:30:06;;;;;;;2.17;0.22;;;;;;;10.68;76.63;98546.47;5106578;28;20413;-84
2022/04/07 06:32:31;;;;;;;0.75;0.20;;;;;;;10.64;76.76;98537.31;5092330;28;20465;-84
2022/04/07 06:34:57;;;;;;;0.55;0.20;;;;;;;10.69;76.06;98526.44;5096502;28;20479;-83
2022/04/07 06:37:22;;;;;;;1.00;0.20;;;;;;;10.70;76.19;98525.31;5105686;28;20779;-87
2022/04/07 06:39:48;;;;;;;0.80;0.50;;;;;;;10.71;75.62;98513.38;5101678;28;20727;-86
2022/04/07 06:42:13;;;;;;;1.10;0.30;;;;;;;10.79;75.63;98484.84;5102311;28;20958;-88
2022/04/07 06:44:38;;;;;;;0.20;0.20;;;;;;;10.81;76.18;98496.97;5092947;28;20441;-88
2022/04/07 06:47:04;;;;;;;1.70;0.30;;;;;;;10.77;75.91;98479.69;5105118;28;20412;-85
2022/04/07 06:49:29;;;;;;;1.80;0.30;;;;;;;10.70;76.44;98481.97;5107999;28;20755;-88
2022/04/07 06:51:54;;;;;;;0.73;0.20;;;;;;;10.74;76.51;98482.19;5100392;28;20447;-86
2022/04/07 06:54:21;;;;;;;1.10;0.37;;;;;;;10.70;76.60;98476.53;5100695;28;20888;-89
2022/04/07 06:56:46;;;;;;;0.30;0.20;;;;;;;10.78;77.19;98485.94;5094214;28;20420;-83
2022/04/07 06:59:11;;;;;;;1.07;0.30;;;;;;;10.72;77.18;98474.38;5095300;28;20410;-86
2022/04/07 07:01:36;;;;;;;0.95;0.60;;;;;;;10.67;77.57;98473.66;5101514;28;20416;-84
2022/04/07 07:04:02;;;;;;;1.60;0.30;;;;;;;10.69;77.97;98461.41;5102735;28;20733;-85
2022/04/07 07:06:27;;;;;;;0.80;0.35;;;;;;;10.52;79.47;98466.53;5094111;28;20432;-85
2022/04/07 07:08:53;;;;;;;0.57;0.40;;;;;;;10.59;78.59;98468.88;5092959;28;20406;-84
2022/04/07 07:11:18;;;;;;;1.65;0.40;;;;;;;10.66;79.23;98462.00;5093059;28;20416;-80
2022/04/07 07:13:43;;;;;;;0.70;0.50;;;;;;;10.69;79.11;98450.56;5096509;27;20463;-86
2022/04/07 07:16:08;;;;;;;0.70;0.30;;;;;;;10.67;80.25;98455.47;5094242;27;20734;-87
2022/04/07 07:18:34;;;;;;;1.93;0.20;;;;;;;10.62;79.83;98455.56;5104220;27;20533;-83
2022/04/07 07:20:59;;;;;;;0.70;0.38;;;;;;;10.54;80.36;98436.47;5103238;27;20486;-78
2022/04/07 07:23:25;;;;;;;0.43;0.30;;;;;;;10.54;79.74;98429.13;5106252;28;20479;-91
2022/04/07 07:25:50;;;;;;;1.50;0.32;;;;;;;10.68;79.57;98421.06;5116866;28;20389;-87
2022/04/07 07:28:15;;;;;;;0.40;0.40;;;;;;;10.81;78.60;98420.31;5106233;28;20410;-86
2022/04/07 07:30:41;;;;;;;1.40;0.60;;;;;;;10.77;77.49;98417.38;5111944;28;20384;-85
2022/04/07 07:33:07;;;;;;;1.13;0.40;;;;;;;10.59;77.86;98420.13;5100997;28;20442;-88
2022/04/07 07:35:33;;;;;;;1.23;0.50;;;;;;;10.59;78.34;98401.97;5105393;28;20428;-85
2022/04/07 07:38:00;;;;;;;0.50;0.50;;;;;;;10.67;77.86;98389.66;5115740;27;20863;-86
2022/04/07 07:40:31;;;;;;;2.67;1.70;;;;;;;10.79;76.98;98390.00;5103703;28;20430;-83
2022/04/07 07:42:57;;;;;;;1.92;0.90;;;;;;;10.89;75.61;98368.97;5115443;27;20408;-81
2022/04/07 07:45:24;;;;;;;1.50;0.77;;;;;;;11.02;74.74;98375.50;5109768;27;20517;-87
2022/04/07 07:47:51;;;;;;;0.43;0.43;;;;;;;11.15;73.22;98366.59;5107443;27;20741;-85
2022/04/07 07:50:16;;;;;;;1.20;0.50;;;;;;;11.36;72.94;98375.16;5111522;27;20406;-88
2022/04/07 07:52:41;;;;;;;1.37;0.50;;;;;;;11.46;71.91;98366.81;5109176;28;20409;-86
2022/04/07 07:55:07;;;;;;;2.50;0.97;;;;;;;11.39;72.73;98371.84;5103459;28;20493;-88
2022/04/07 07:57:33;;;;;;;2.95;0.70;;;;;;;11.40;73.26;98355.28;5102053;28;20406;-86
2022/04/07 07:59:59;;;;;;;1.57;0.50;;;;;;;11.39;73.12;98367.22;5112162;28;20902;-85
2022/04/07 08:02:24;;;;;;;0.90;0.60;;;;;;;11.42;72.70;98319.72;5101761;28;20419;-85
2022/04/07 08:04:49;;;;;;;1.30;0.67;;;;;;;11.59;73.09;98309.03;5109542;28;20400;-85
2022/04/07 08:07:15;;;;;;;0.93;0.40;;;;;;;11.73;72.26;98323.44;5100985;28;20405;-86
2022/04/07 08:09:40;;;;;;;1.90;0.60;;;;;;;11.96;70.88;98308.00;5107590;28;20409;-84
2022/04/07 08:12:06;;;;;;;0.70;0.40;;;;;;;12.16;70.86;98310.25;5097770;28;20404;-86
2022/04/07 08:14:32;;;;;;;0.57;0.57;;;;;;;12.45;68.31;98323.41;5093501;28;21024;-86
2022/04/07 08:16:57;;;;;;;3.80;0.43;;;;;;;12.58;68.45;98311.69;5088860;28;20543;-84
2022/04/07 08:19:23;;;;;;;1.93;0.50;;;;;;;12.89;66.96;98306.28;5094135;28;20508;-85
2022/04/07 08:21:48;;;;;;;1.30;0.32;;;;;;;12.92;67.13;98292.06;5092970;28;20414;-81
2022/04/07 08:24:16;;;;;;;1.30;0.20;;;;;;;12.74;66.15;98299.34;5092950;28;20796;-84
2022/04/07 08:26:42;;;;;;;1.55;0.40;;;;;;;12.72;66.47;98319.75;5095712;28;20464;-84
2022/04/07 08:29:07;;;;;;;4.22;0.50;;;;;;;12.57;66.08;98322.88;5092336;27;21127;-84
2022/04/07 08:31:32;;;;;;;1.40;0.30;;;;;;;12.22;67.73;98330.75;5093029;28;20405;-84
2022/04/07 08:33:57;;;;;;;0.63;0.32;;;;;;;12.08;68.54;98315.63;5111172;27;20392;-83
2022/04/07 08:36:23;;;;;;;1.20;0.50;;;;;;;11.96;70.25;98303.38;5102864;28;20753;-83
2022/04/07 08:38:48;;;;;;;0.83;0.60;;;;;;;11.95;70.13;98298.28;5107340;28;20485;-85
2022/04/07 08:41:14;;;;;;;0.67;0.50;;;;;;;12.18;69.46;98305.34;5105381;28;20453;-82
2022/04/07 08:43:40;;;;;;;0.80;0.30;;;;;;;12.25;70.64;98283.19;5093170;28;20408;-83
2022/04/07 08:46:11;;;;;;;0.32;0.30;;;;;;;12.14;70.69;98304.34;5106377;28;20416;-86
2022/04/07 08:48:46;;;;;;;1.58;0.30;;;;;;;12.01;71.60;98304.38;5094678;28;20406;-85
2022/04/07 08:51:11;;;;;;;1.75;0.50;;;;;;;11.87;74.10;98304.41;5095148;28;20408;-87
2022/04/07 08:53:38;;;;;;;1.58;0.40;;;;;;;11.89;74.51;98304.91;5093005;28;20396;-87
2022/04/07 08:56:05;;;;;;;0.35;0.28;;;;;;;12.01;75.12;98302.47;5093290;28;20409;-85
2022/04/07 08:58:31;;;;;;;1.00;0.20;;;;;;;11.92;75.77;98309.75;5095561;28;20894;-84
2022/04/07 09:00:56;;;;;;;0.97;0.30;;;;;;;11.57;77.32;98308.56;5098494;28;20447;-84
2022/04/07 09:03:22;;;;;;;1.70;0.40;;;;;;;11.42;79.34;98301.56;5092500;28;20507;-84
2022/04/07 09:05:57;;;;;;;1.20;0.70;;;;;;;11.42;78.56;98296.13;5093824;27;20405;-84
2022/04/07 09:08:51;;;;;;;1.20;0.40;;;;;;;11.60;78.30;98297.09;5106371;28;20384;-85
2022/04/07 09:11:18;;;;;;;0.50;0.30;;;;;;;11.78;77.26;98306.25;5092689;28;20487;-83
2022/04/07 09:13:49;;;;;;;1.95;0.40;;;;;;;11.81;77.60;98316.50;5091471;28;20410;-84
2022/04/07 09:16:15;;;;;;;1.08;0.60;;;;;;;11.88;78.64;98303.31;5091802;28;20491;-84
2022/04/07 09:18:47;;;;;;;1.60;0.50;;;;;;;11.86;79.57;98289.22;5095330;28;20449;-84
2022/04/07 09:21:22;;;;;;;0.20;0.20;;;;;;;11.71;79.43;98295.00;5092784;28;20485;-84
2022/04/07 09:23:47;;;;;;;5.75;0.50;;;;;;;11.43;80.62;98310.47;5093104;28;20404;-84
2022/04/07 09:26:13;;;;;;;2.10;0.40;;;;;;;11.52;80.76;98275.31;5094472;28;20407;-84
2022/04/07 09:28:39;;;;;;;1.33;0.40;;;;;;;11.62;80.87;98296.81;5094783;28;20750;-82
2022/04/07 09:31:04;;;;;;;0.30;0.30;;;;;;;11.69;79.28;98281.69;5097332;27;20453;-83
2022/04/07 09:33:30;;;;;;;0.50;0.30;;;;;;;11.63;78.93;98282.09;5098829;27;20409;-83
2022/04/07 09:36:08;;;;;;;3.10;0.50;;;;;;;11.60;78.39;98261.00;5095964;27;20408;-83
2022/04/07 09:38:35;;;;;;;0.95;0.40;;;;;;;11.65;77.77;98260.94;5098246;27;20429;-86
2022/04/07 09:41:04;;;;;;;0.40;0.40;;;;;;;11.69;76.96;98251.84;5091880;28;20411;-86
2022/04/07 09:43:40;;;;;;;1.80;0.40;;;;;;;11.72;76.75;98234.22;5091740;28;20431;-83
2022/04/07 09:46:11;;;;;;;1.30;0.40;;;;;;;11.69;76.05;98227.44;5092606;28;20417;-85
2022/04/07 09:48:37;;;;;;;0.30;0.28;;;;;;;11.69;75.78;98229.38;5095553;28;20425;-83
2022/04/07 09:51:08;;;;;;;1.52;0.50;;;;;;;11.71;75.25;98229.88;5099173;28;20485;-83
2022/04/07 09:53:39;;;;;;;2.45;0.47;;;;;;;11.80;74.26;98200.91;5096537;28;20823;-82
2022/04/07 09:56:07;;;;;;;5.40;0.52;;;;;;;11.96;73.35;98194.81;5096639;28;20492;-86
2022/04/07 09:58:34;;;;;;;1.35;0.98;;;;;;;11.95;73.12;98212.19;5091447;28;20404;-84
2022/04/07 10:01:04;;;;;;;1.02;0.93;;;;;;;11.95;72.50;98185.06;5091352;28;20757;-82
2022/04/07 10:03:31;;;;;;;1.08;0.55;;;;;;;12.08;72.94;98196.16;5091267;28;20457;-84
2022/04/07 10:05:58;;;;;;;3.22;0.77;;;;;;;12.20;73.44;98183.63;5092096;28;20984;-83
2022/04/07 10:08:24;;;;;;;0.55;0.50;;;;;;;12.38;72.89;98185.31;5093262;28;20431;-86
2022/04/07 10:10:50;;;;;;;0.50;0.50;;;;;;;12.73;72.71;98175.44;5101233;28;20408;-89
2022/04/07 10:13:16;;;;;;;0.77;0.77;;;;;;;13.20;70.53;98170.31;5091123;28;20505;-86
2022/04/07 10:15:42;;;;;;;0.77;0.50;;;;;;;13.10;69.66;98168.72;5091152;28;20535;-87
2022/04/07 10:18:15;;;;;;;1.00;0.40;;;;;;;12.83;71.07;98149.88;5093756;28;20402;-83
2022/04/07 10:20:45;;;;;;;0.57;0.30;;;;;;;12.76;70.68;98157.69;5087480;28;20406;-85
2022/04/07 10:23:53;;;;;;;1.83;0.35;;;;;;;12.75;70.30;98151.44;5091198;28;20412;-88
2022/04/07 10:26:21;;;;;;;0.57;0.43;;;;;;;12.86;68.63;98162.84;5090654;28;20409;-83
2022/04/07 10:28:54;;;;;;;0.50;0.30;;;;;;;12.88;67.96;98163.31;5091311;28;20476;-86
2022/04/07 10:31:22;;;;;;;1.48;0.50;;;;;;;12.75;66.20;98154.16;5089635;28;20417;-84
2022/04/07 10:33:48;;;;;;;0.90;0.38;;;;;;;12.85;67.10;98143.00;5089892;28;20455;-84
2022/04/07 10:36:16;;;;;;;0.33;0.20;;;;;;;12.95;66.51;98129.13;5088970;28;21302;-85
2022/04/07 10:38:44;;;;;;;3.13;0.30;;;;;;;13.13;66.46;98115.59;5090400;28;20422;-82
2022/04/07 10:41:10;;;;;;;0.87;0.20;;;;;;;13.04;66.89;98118.25;5091432;28;20414;-80
2022/04/07 10:43:40;;;;;;;3.17;0.40;;;;;;;13.05;66.33;98127.22;5094580;28;20404;-91
2022/04/07 10:46:09;;;;;;;0.20;0.15;;;;;;;12.98;66.64;98112.19;5091981;28;20405;-86
2022/04/07 10:48:36;;;;;;;0.40;0.22;;;;;;;12.88;67.37;98117.91;5095392;28;20515;-82
2022/04/07 10:51:07;;;;;;;0.13;0.13;;;;;;;12.78;66.97;98091.03;5093127;28;20448;-84
2022/04/07 10:53:36;;;;;;;1.63;0.30;;;;;;;12.80;67.27;98110.56;5096604;28;20408;-83
2022/04/07 10:56:10;;;;;;;0.55;0.35;;;;;;;12.88;66.60;98111.66;5091093;28;20398;-83
2022/04/07 10:58:50;;;;;;;0.40;0.20;;;;;;;12.98;66.22;98105.94;5092687;28;20401;-83
2022/04/07 11:01:31;;;;;;;0.80;0.30;;;;;;;13.82;64.42;98109.03;5093542;28;20899;-79
2022/04/07 11:07:02;;;;;;;0.60;0.17;;;;;;;13.96;63.18;98106.13;5092265;28;20453;-82
2022/04/07 11:09:55;;;;;;;3.33;0.95;;;;;;;13.70;63.43;98078.16;5092563;28;22611;-86
2022/04/07 11:12:37;;;;;;;1.65;0.30;;;;;;;13.64;64.73;98085.66;5092727;28;20509;-87
2022/04/07 11:15:03;;;;;;;0.47;0.17;;;;;;;13.50;64.15;98076.91;5092049;28;20412;-81
2022/04/07 11:17:35;;;;;;;1.50;0.30;;;;;;;13.41;64.98;98082.31;5091326;28;20402;-86
2022/04/07 11:20:13;;;;;;;1.40;0.10;;;;;;;13.28;66.12;98086.00;5093036;28;20462;-85
2022/04/07 11:22:54;;;;;;;0.30;0.20;;;;;;;13.50;66.44;98066.78;5093385;28;20421;-89
2022/04/07 11:25:25;;;;;;;0.30;0.10;;;;;;;13.58;65.11;98059.75;5092026;28;20411;-83
2022/04/07 11:28:11;;;;;;;1.40;0.30;;;;;;;13.60;64.49;98070.31;5093298;28;20448;-83
2022/04/07 11:30:37;;;;;;;0.10;0.10;;;;;;;13.45;64.93;98053.34;5089548;28;20412;-88
2022/04/07 11:33:18;;;;;;;0.60;0.10;;;;;;;13.41;65.25;98057.03;5093432;28;20412;-84
2022/04/07 11:35:58;;;;;;;3.10;0.20;;;;;;;13.41;64.79;98057.84;5093013;28;20404;-85